Time;durP1;ratioP1;P1;durP2;ratioP2;P2;SDS_P1;SDS_P2;PMS_P1;PMS_P2;Temp;Humidity;BMP_temperature;BMP_pressure;BME280_temperature;BME280_humidity;BME280_pressure;Samples;Min_cycle;Max_cycle;Signal;HPM_P1;HPM_P2
2022/09/02 00:01:36;;;;;;;5.78;1.70;;;18.10;99.90;;;;;;5037604;28;20112;-58
2022/09/02 00:04:05;;;;;;;5.30;1.60;;;18.10;99.90;;;;;;5039377;28;20033;-59
2022/09/02 00:06:32;;;;;;;2.28;1.40;;;17.90;99.90;;;;;;5036191;28;20602;-58
2022/09/02 00:08:58;;;;;;;6.72;1.73;;;17.90;99.90;;;;;;5045123;28;20033;-59
2022/09/02 00:11:27;;;;;;;6.10;1.40;;;17.80;99.90;;;;;;5036133;28;20034;-58
2022/09/02 00:13:53;;;;;;;2.85;1.40;;;17.90;99.90;;;;;;5040077;28;20033;-58
2022/09/02 00:16:21;;;;;;;2.75;1.45;;;18.00;99.90;;;;;;5036908;28;20030;-59
2022/09/02 00:18:47;;;;;;;2.20;1.42;;;17.90;99.90;;;;;;5045873;28;20083;-58
2022/09/02 00:21:14;;;;;;;5.00;1.52;;;17.90;99.90;;;;;;5039947;28;20041;-58
2022/09/02 00:23:41;;;;;;;3.85;1.60;;;17.80;99.90;;;;;;5038063;28;20064;-57
2022/09/02 00:26:07;;;;;;;6.18;1.50;;;17.70;99.90;;;;;;5035921;28;20575;-58
2022/09/02 00:28:32;;;;;;;4.10;1.50;;;17.60;99.90;;;;;;5037573;28;20032;-59
2022/09/02 00:30:58;;;;;;;1.90;1.40;;;17.50;99.90;;;;;;5039907;28;20694;-58
2022/09/02 00:33:23;;;;;;;4.25;1.60;;;17.60;99.90;;;;;;5044368;28;20045;-59
2022/09/02 00:35:49;;;;;;;5.63;1.60;;;17.70;99.90;;;;;;5038396;28;20032;-58
2022/09/02 00:38:15;;;;;;;4.95;1.58;;;17.50;99.90;;;;;;5038103;28;20029;-57
2022/09/02 00:40:46;;;;;;;4.57;1.50;;;17.40;99.90;;;;;;5041931;28;20078;-58
2022/09/02 00:43:22;;;;;;;6.82;1.70;;;17.30;99.90;;;;;;5037491;28;20562;-58
2022/09/02 00:45:48;;;;;;;3.53;1.33;;;17.40;99.90;;;;;;5038627;28;20358;-57
2022/09/02 00:48:14;;;;;;;2.65;1.63;;;17.20;99.90;;;;;;5037329;28;20036;-58
2022/09/02 00:50:39;;;;;;;4.63;1.67;;;17.20;99.90;;;;;;5041452;28;20673;-56
2022/09/02 00:53:08;;;;;;;4.93;1.60;;;17.20;99.90;;;;;;5039727;28;20129;-56
2022/09/02 00:55:44;;;;;;;4.20;1.65;;;17.20;99.90;;;;;;5043204;28;20037;-57
2022/09/02 00:58:19;;;;;;;2.70;1.52;;;17.30;99.90;;;;;;5036767;28;20493;-58
2022/09/02 01:00:46;;;;;;;3.42;1.70;;;17.30;99.90;;;;;;5037812;28;20445;-58
2022/09/02 01:03:16;;;;;;;7.25;1.90;;;17.20;99.90;;;;;;5042747;28;20033;-58
2022/09/02 01:05:45;;;;;;;3.13;1.55;;;17.20;99.90;;;;;;5035025;28;20404;-59
2022/09/02 01:08:29;;;;;;;5.15;1.77;;;17.30;99.90;;;;;;5033492;28;20476;-57
2022/09/02 01:10:56;;;;;;;3.40;1.25;;;17.30;99.90;;;;;;5041996;28;20032;-59
2022/09/02 01:13:27;;;;;;;4.50;1.50;;;17.20;99.90;;;;;;5040747;28;20112;-59
2022/09/02 01:16:10;;;;;;;4.22;1.70;;;16.90;99.90;;;;;;5038909;28;20523;-56
2022/09/02 01:18:36;;;;;;;4.40;1.60;;;17.00;99.90;;;;;;5035423;28;20118;-58
2022/09/02 01:21:03;;;;;;;3.55;1.45;;;17.00;99.90;;;;;;5045131;28;20040;-58
2022/09/02 01:23:30;;;;;;;2.92;1.65;;;17.00;99.90;;;;;;5035199;28;20033;-59
2022/09/02 01:25:56;;;;;;;1.70;1.50;;;17.00;99.90;;;;;;5039177;28;20037;-58
2022/09/02 01:28:22;;;;;;;5.78;1.58;;;16.80;99.90;;;;;;5035443;28;20034;-58
2022/09/02 01:30:53;;;;;;;4.22;1.67;;;17.10;99.90;;;;;;5038988;28;20579;-58
2022/09/02 01:33:21;;;;;;;3.35;1.58;;;17.10;99.90;;;;;;5037099;28;20032;-59
2022/09/02 01:35:47;;;;;;;3.30;1.48;;;17.20;99.90;;;;;;5037532;28;20025;-58
2022/09/02 01:38:13;;;;;;;2.80;1.48;;;17.10;99.90;;;;;;5038116;28;20033;-57
2022/09/02 01:40:39;;;;;;;4.25;1.30;;;17.10;99.90;;;;;;5037367;28;20037;-59
2022/09/02 01:43:13;;;;;;;4.53;1.40;;;17.10;99.90;;;;;;5036653;28;20121;-58
2022/09/02 01:45:41;;;;;;;2.55;1.42;;;17.10;99.90;;;;;;5036951;28;20082;-58
2022/09/02 01:48:08;;;;;;;3.15;1.40;;;17.10;99.90;;;;;;5043586;28;20576;-57
2022/09/02 01:50:38;;;;;;;2.50;1.60;;;17.10;99.90;;;;;;5043128;28;20392;-59
2022/09/02 01:53:04;;;;;;;3.67;1.58;;;16.90;99.90;;;;;;5039995;28;20128;-58
2022/09/02 01:55:32;;;;;;;4.18;1.70;;;16.90;99.90;;;;;;5037766;28;20447;-58
2022/09/02 01:57:58;;;;;;;5.20;1.65;;;17.00;99.90;;;;;;5045483;28;20483;-58
2022/09/02 02:00:24;;;;;;;5.50;1.70;;;16.80;99.90;;;;;;5038555;28;20090;-58
2022/09/02 02:02:49;;;;;;;3.00;1.75;;;16.70;99.90;;;;;;5042428;28;20029;-57
2022/09/02 02:05:16;;;;;;;2.63;1.40;;;16.90;99.90;;;;;;5042538;28;20037;-58
2022/09/02 02:07:43;;;;;;;2.97;1.70;;;16.90;99.90;;;;;;5033237;28;20033;-57
2022/09/02 02:10:11;;;;;;;2.08;1.30;;;16.90;99.90;;;;;;5037882;28;20044;-58
2022/09/02 02:12:38;;;;;;;3.65;1.65;;;16.90;99.90;;;;;;5036200;28;20051;-58
2022/09/02 02:15:11;;;;;;;4.82;1.73;;;17.00;99.90;;;;;;5035621;28;20063;-58
2022/09/02 02:17:37;;;;;;;2.95;1.40;;;17.00;99.90;;;;;;5033192;28;20087;-57
2022/09/02 02:20:05;;;;;;;3.80;1.67;;;16.70;99.90;;;;;;5035780;28;20460;-58
2022/09/02 02:22:30;;;;;;;4.43;1.83;;;16.70;99.90;;;;;;5040120;28;20448;-57
2022/09/02 02:24:56;;;;;;;2.50;1.63;;;16.60;99.90;;;;;;5040861;28;20119;-55
2022/09/02 02:27:22;;;;;;;7.03;1.60;;;16.50;99.90;;;;;;5041625;28;20400;-59
2022/09/02 02:29:48;;;;;;;3.30;1.58;;;16.60;99.90;;;;;;5041027;28;20079;-58
2022/09/02 02:32:17;;;;;;;3.60;1.60;;;16.50;99.90;;;;;;5036385;28;20132;-58
2022/09/02 02:34:43;;;;;;;3.50;1.60;;;16.50;99.90;;;;;;5035794;28;20055;-58
2022/09/02 02:37:11;;;;;;;4.15;1.80;;;16.50;99.90;;;;;;5038588;28;20072;-59
2022/09/02 02:39:36;;;;;;;3.05;1.55;;;16.40;99.90;;;;;;5036270;28;20438;-59
2022/09/02 02:42:02;;;;;;;4.15;1.50;;;16.60;99.90;;;;;;5037337;28;20032;-57
2022/09/02 02:44:28;;;;;;;3.85;1.50;;;16.60;99.90;;;;;;5029357;28;20040;-57
2022/09/02 02:46:54;;;;;;;3.53;1.50;;;16.70;99.90;;;;;;5033178;28;20154;-57
2022/09/02 02:49:20;;;;;;;3.67;1.85;;;16.60;99.90;;;;;;5040426;28;20029;-57
2022/09/02 02:51:46;;;;;;;4.55;1.73;;;16.60;99.90;;;;;;5037786;28;20049;-58
2022/09/02 02:54:13;;;;;;;8.68;1.95;;;16.60;99.90;;;;;;5037472;28;20158;-58
2022/09/02 02:56:38;;;;;;;5.82;1.77;;;16.60;99.90;;;;;;5034220;28;20104;-58
2022/09/02 02:59:04;;;;;;;3.47;1.48;;;16.70;99.90;;;;;;5033684;28;20465;-57
2022/09/02 03:01:31;;;;;;;3.08;1.58;;;16.80;99.90;;;;;;5035702;28;20040;-57
2022/09/02 03:03:57;;;;;;;3.90;1.60;;;16.90;99.90;;;;;;5040497;28;20102;-57
2022/09/02 03:06:22;;;;;;;3.17;1.73;;;16.70;99.90;;;;;;5039496;28;20546;-58
2022/09/02 03:08:48;;;;;;;4.90;1.50;;;16.70;99.90;;;;;;5030425;28;20083;-57
2022/09/02 03:11:15;;;;;;;4.70;1.75;;;16.80;99.90;;;;;;5035463;28;20041;-57
2022/09/02 03:13:41;;;;;;;3.22;1.85;;;16.70;99.90;;;;;;5041332;28;20385;-58
2022/09/02 03:16:06;;;;;;;3.97;1.73;;;16.70;99.90;;;;;;5038204;28;20041;-58
2022/09/02 03:18:33;;;;;;;8.48;1.92;;;16.60;99.90;;;;;;5035040;28;20376;-56
2022/09/02 03:21:00;;;;;;;5.05;1.80;;;16.50;99.90;;;;;;5039490;28;20029;-57
2022/09/02 03:23:25;;;;;;;3.08;1.58;;;16.60;99.90;;;;;;5033424;28;20026;-57
2022/09/02 03:25:51;;;;;;;4.88;1.70;;;16.50;99.90;;;;;;5031836;28;20399;-58
2022/09/02 03:28:17;;;;;;;5.10;1.85;;;16.70;99.90;;;;;;5035938;28;20032;-56
2022/09/02 03:30:44;;;;;;;5.15;1.90;;;16.70;99.90;;;;;;5040055;28;20637;-58
2022/09/02 03:33:09;;;;;;;7.00;1.77;;;16.80;99.90;;;;;;5041389;28;20060;-58
2022/09/02 03:35:39;;;;;;;4.82;1.83;;;16.90;99.90;;;;;;5037835;28;20049;-58
2022/09/02 03:38:06;;;;;;;3.42;1.67;;;16.90;99.90;;;;;;5039278;28;20048;-58
2022/09/02 03:40:31;;;;;;;11.50;1.85;;;17.00;99.90;;;;;;5040797;28;20506;-57
2022/09/02 03:42:57;;;;;;;3.45;1.80;;;17.00;99.90;;;;;;5042683;28;20053;-57
2022/09/02 03:45:23;;;;;;;11.25;2.17;;;17.00;99.90;;;;;;5042143;28;20083;-57
2022/09/02 03:47:53;;;;;;;4.82;2.00;;;16.90;99.90;;;;;;5042093;28;20037;-59
2022/09/02 03:50:31;;;;;;;4.03;1.95;;;16.80;99.90;;;;;;5039325;28;20127;-58
2022/09/02 03:52:57;;;;;;;3.20;1.90;;;16.90;99.90;;;;;;5038763;28;20040;-58
2022/09/02 03:55:24;;;;;;;4.13;1.70;;;16.90;99.90;;;;;;5039249;28;20041;-58
2022/09/02 03:57:50;;;;;;;5.18;2.00;;;16.70;99.90;;;;;;5044046;28;20450;-58
2022/09/02 04:00:17;;;;;;;3.33;1.80;;;16.60;99.90;;;;;;5036455;28;20052;-56
2022/09/02 04:02:43;;;;;;;3.97;1.98;;;16.80;99.90;;;;;;5045933;28;20037;-59
2022/09/02 04:05:11;;;;;;;6.03;2.10;;;16.90;99.90;;;;;;5041707;28;20040;-58
2022/09/02 04:07:37;;;;;;;5.03;1.92;;;16.80;99.90;;;;;;5040915;28;20036;-56
2022/09/02 04:10:03;;;;;;;7.38;2.53;;;16.70;99.90;;;;;;5036338;28;20167;-58
2022/09/02 04:12:29;;;;;;;5.15;2.10;;;16.80;99.90;;;;;;5039011;28;20435;-59
2022/09/02 04:14:55;;;;;;;2.70;1.85;;;16.70;99.90;;;;;;5037554;28;20035;-58
2022/09/02 04:17:20;;;;;;;5.13;2.05;;;16.70;99.90;;;;;;5041461;28;20045;-59
2022/09/02 04:19:46;;;;;;;5.55;2.00;;;16.80;99.90;;;;;;5039575;28;20128;-59
2022/09/02 04:22:11;;;;;;;7.05;2.10;;;16.80;99.90;;;;;;5036651;28;20427;-58
2022/09/02 04:24:37;;;;;;;11.20;2.58;;;16.80;99.90;;;;;;5043726;28;20381;-57
2022/09/02 04:27:03;;;;;;;6.03;1.90;;;16.60;99.90;;;;;;5039695;28;20444;-59
2022/09/02 04:29:30;;;;;;;5.90;1.92;;;16.60;99.90;;;;;;5038491;28;20485;-57
2022/09/02 04:31:56;;;;;;;6.88;2.22;;;16.60;99.90;;;;;;5040088;28;20041;-58
2022/09/02 04:34:22;;;;;;;5.47;2.20;;;16.70;99.90;;;;;;5042131;28;20861;-58
2022/09/02 04:36:47;;;;;;;5.57;2.40;;;16.70;99.90;;;;;;5043160;28;20050;-59
2022/09/02 04:39:13;;;;;;;4.13;2.00;;;16.80;99.90;;;;;;5041349;28;20033;-58
2022/09/02 04:41:38;;;;;;;7.40;2.00;;;16.70;99.90;;;;;;5041901;28;20052;-58
2022/09/02 04:44:06;;;;;;;5.80;2.00;;;16.70;99.90;;;;;;5039167;28;20091;-58
2022/09/02 04:46:32;;;;;;;4.75;1.92;;;16.70;99.90;;;;;;5042775;28;20038;-58
2022/09/02 04:48:57;;;;;;;3.55;2.05;;;16.70;99.90;;;;;;5038116;28;20037;-56
2022/09/02 04:51:25;;;;;;;5.60;1.92;;;16.60;99.90;;;;;;5042946;28;20037;-58
2022/09/02 04:53:52;;;;;;;5.38;2.05;;;16.70;99.90;;;;;;5037953;28;20032;-58
2022/09/02 04:56:21;;;;;;;5.10;2.05;;;16.90;99.90;;;;;;5042703;28;20037;-56
2022/09/02 04:58:49;;;;;;;4.55;1.85;;;16.90;99.90;;;;;;5036106;28;20397;-58
2022/09/02 05:01:17;;;;;;;5.78;2.08;;;16.80;99.90;;;;;;5037237;28;20116;-57
2022/09/02 05:03:44;;;;;;;5.63;1.98;;;16.70;99.90;;;;;;5044870;28;20059;-58
2022/09/02 05:06:13;;;;;;;4.90;2.00;;;16.70;99.90;;;;;;5031638;28;20029;-59
2022/09/02 05:08:40;;;;;;;5.43;2.10;;;16.70;99.90;;;;;;5038005;28;20117;-59
2022/09/02 05:11:13;;;;;;;6.55;2.00;;;16.70;99.90;;;;;;5037828;28;20044;-59
2022/09/02 05:13:41;;;;;;;8.13;1.90;;;16.80;99.90;;;;;;5043145;28;20032;-58
2022/09/02 05:16:07;;;;;;;5.38;1.88;;;16.90;99.90;;;;;;5042267;28;20506;-58
2022/09/02 05:18:33;;;;;;;10.55;1.85;;;16.80;99.90;;;;;;5043581;28;20033;-58
2022/09/02 05:20:58;;;;;;;8.23;2.10;;;16.70;99.90;;;;;;5038260;28;20029;-57
2022/09/02 05:23:24;;;;;;;5.68;1.98;;;16.60;99.90;;;;;;5044322;28;20036;-57
2022/09/02 05:25:49;;;;;;;44.88;33.65;;;16.60;99.90;;;;;;5041885;28;20029;-58
2022/09/02 05:28:15;;;;;;;25.30;15.48;;;16.60;99.90;;;;;;5041584;28;20029;-58
2022/09/02 05:30:41;;;;;;;12.52;2.42;;;16.70;99.90;;;;;;5032485;28;20070;-57
2022/09/02 05:33:08;;;;;;;6.40;1.75;;;16.80;99.90;;;;;;5038707;28;20447;-59
2022/09/02 05:35:38;;;;;;;5.18;2.20;;;16.90;99.90;;;;;;5039355;28;20021;-56
2022/09/02 05:38:03;;;;;;;7.28;2.35;;;17.10;99.90;;;;;;5036418;28;20080;-58
2022/09/02 05:40:29;;;;;;;7.47;2.00;;;17.10;99.90;;;;;;5035454;28;20068;-57
2022/09/02 05:42:55;;;;;;;11.02;2.92;;;17.10;99.90;;;;;;5029076;28;20375;-57
2022/09/02 05:45:22;;;;;;;5.95;2.47;;;17.10;99.90;;;;;;5035313;28;20044;-58
2022/09/02 05:47:48;;;;;;;8.02;1.85;;;17.10;99.90;;;;;;5037009;28;20029;-55
2022/09/02 05:50:15;;;;;;;7.10;2.30;;;17.00;99.90;;;;;;5031434;28;20044;-56
2022/09/02 05:52:41;;;;;;;5.70;2.10;;;17.20;99.90;;;;;;5034825;28;20075;-56
2022/09/02 05:55:07;;;;;;;10.73;2.20;;;17.20;99.90;;;;;;5034715;28;20124;-57
2022/09/02 05:57:33;;;;;;;4.53;2.05;;;17.30;99.90;;;;;;5031669;28;20642;-58
2022/09/02 05:59:58;;;;;;;7.53;1.80;;;17.30;99.90;;;;;;5035160;28;20041;-57
2022/09/02 06:02:24;;;;;;;6.72;2.15;;;17.40;99.90;;;;;;5037777;28;20045;-58
2022/09/02 06:04:52;;;;;;;4.72;1.83;;;17.50;99.90;;;;;;5034369;28;20033;-57
2022/09/02 06:07:20;;;;;;;7.35;2.17;;;17.70;99.90;;;;;;5038559;28;20507;-58
2022/09/02 06:09:47;;;;;;;11.63;2.38;;;17.80;99.90;;;;;;5031608;28;20639;-56
2022/09/02 06:12:14;;;;;;;12.27;2.72;;;17.90;99.90;;;;;;5035098;28;20083;-57
2022/09/02 06:14:40;;;;;;;8.57;1.90;;;17.90;99.90;;;;;;5034914;28;20396;-57
2022/09/02 06:17:08;;;;;;;5.68;1.70;;;18.00;99.90;;;;;;5033597;28;20039;-58
2022/09/02 06:19:34;;;;;;;8.70;2.00;;;18.20;99.90;;;;;;5035216;28;20102;-58
2022/09/02 06:22:01;;;;;;;5.45;2.00;;;18.10;99.90;;;;;;5052513;28;20041;-59
2022/09/02 06:24:28;;;;;;;4.97;1.73;;;17.90;99.90;;;;;;5037429;28;20110;-59
2022/09/02 06:26:55;;;;;;;4.93;1.65;;;17.90;99.90;;;;;;5038338;28;20821;-58
2022/09/02 06:29:21;;;;;;;8.00;2.13;;;17.90;99.90;;;;;;5041808;28;20029;-57
2022/09/02 06:31:48;;;;;;;5.65;2.08;;;17.90;99.90;;;;;;5034708;28;20026;-57
2022/09/02 06:34:15;;;;;;;6.00;1.88;;;17.90;99.90;;;;;;5042232;28;20040;-57
2022/09/02 06:36:43;;;;;;;4.43;1.90;;;17.90;99.90;;;;;;5041112;28;20047;-58
2022/09/02 06:39:12;;;;;;;7.78;1.88;;;17.80;99.90;;;;;;5034247;28;20515;-58
2022/09/02 06:41:39;;;;;;;6.35;1.92;;;17.80;99.90;;;;;;5039555;28;20554;-57
2022/09/02 06:44:05;;;;;;;10.00;2.22;;;17.90;99.90;;;;;;5037914;28;20055;-58
2022/09/02 06:46:34;;;;;;;5.82;2.20;;;18.20;99.90;;;;;;5043323;28;20029;-57
2022/09/02 06:49:00;;;;;;;5.47;1.65;;;18.10;99.90;;;;;;5043198;28;20040;-57
2022/09/02 06:51:46;;;;;;;5.13;2.00;;;18.10;99.90;;;;;;5041709;28;20128;-58
2022/09/02 06:54:14;;;;;;;5.70;2.25;;;18.20;99.90;;;;;;5040837;28;20718;-56
2022/09/02 06:56:40;;;;;;;4.63;1.65;;;18.10;99.90;;;;;;5036439;28;20127;-57
2022/09/02 06:59:06;;;;;;;8.00;2.08;;;18.20;99.90;;;;;;5037931;28;20504;-57
2022/09/02 07:01:33;;;;;;;4.80;1.75;;;18.40;99.90;;;;;;5038850;28;20405;-57
2022/09/02 07:06:49;;;;;;;4.60;1.90;;;18.60;99.90;;;;;;5038553;28;20086;-58
2022/09/02 07:09:19;;;;;;;4.80;1.70;;;18.70;99.90;;;;;;5032583;28;20037;-58
2022/09/02 07:11:46;;;;;;;6.25;1.70;;;18.80;99.90;;;;;;5037114;28;20115;-56
2022/09/02 07:14:14;;;;;;;6.30;1.92;;;18.80;99.90;;;;;;5036240;28;20168;-58
2022/09/02 07:16:44;;;;;;;5.45;1.75;;;18.80;99.90;;;;;;5032767;28;20087;-58
2022/09/02 07:19:11;;;;;;;8.38;2.20;;;;;;;;;;5041953;28;20032;-58
2022/09/02 07:21:36;;;;;;;9.38;2.10;;;19.10;99.90;;;;;;5041293;28;20025;-58
2022/09/02 07:24:02;;;;;;;5.13;2.03;;;19.20;99.90;;;;;;5034719;28;20029;-60
2022/09/02 07:26:28;;;;;;;5.47;1.85;;;19.60;99.90;;;;;;5040831;28;20040;-57
2022/09/02 07:28:55;;;;;;;11.05;2.70;;;19.60;99.90;;;;;;5046205;28;20029;-59
2022/09/02 07:31:22;;;;;;;16.20;6.38;;;19.80;99.90;;;;;;5043811;28;20040;-58
2022/09/02 07:33:47;;;;;;;16.45;2.13;;;19.90;99.90;;;;;;5042981;28;20095;-59
2022/09/02 07:36:14;;;;;;;7.75;1.88;;;20.00;99.90;;;;;;5042857;28;20683;-59
2022/09/02 07:38:41;;;;;;;3.63;1.80;;;20.10;99.90;;;;;;5041075;28;20893;-60
2022/09/02 07:41:09;;;;;;;4.90;1.70;;;20.20;99.90;;;;;;5044902;28;20148;-59
2022/09/02 07:43:36;;;;;;;4.68;1.60;;;20.20;99.90;;;;;;5042570;28;20478;-61
2022/09/02 07:46:03;;;;;;;4.90;1.70;;;20.30;99.90;;;;;;5042349;28;20060;-60
2022/09/02 07:48:29;;;;;;;5.25;1.80;;;20.30;99.90;;;;;;5043556;28;20060;-60
2022/09/02 07:50:56;;;;;;;3.90;1.60;;;20.40;99.90;;;;;;5038225;28;20052;-58
2022/09/02 07:53:22;;;;;;;2.80;1.77;;;20.60;99.90;;;;;;5044405;28;20033;-59
2022/09/02 07:55:47;;;;;;;7.32;1.80;;;20.60;99.90;;;;;;5035833;28;20399;-60
2022/09/02 07:58:16;;;;;;;4.35;1.63;;;20.70;99.90;;;;;;5045980;28;20112;-59
2022/09/02 08:00:42;;;;;;;3.35;1.70;;;20.80;99.90;;;;;;5038999;28;20076;-59
2022/09/02 08:03:09;;;;;;;3.35;1.58;;;20.90;99.90;;;;;;5040560;28;20515;-58
2022/09/02 08:05:35;;;;;;;3.95;1.70;;;21.00;99.90;;;;;;5039298;28;20528;-60
2022/09/02 08:08:01;;;;;;;4.90;1.80;;;21.10;99.90;;;;;;5037901;28;20037;-59
2022/09/02 08:10:28;;;;;;;4.50;1.70;;;21.10;99.90;;;;;;5040330;28;20118;-60
2022/09/02 08:12:59;;;;;;;4.95;1.98;;;21.10;99.90;;;;;;5037174;28;20583;-60
2022/09/02 08:15:27;;;;;;;4.28;1.55;;;21.00;99.90;;;;;;5040233;28;20408;-61
2022/09/02 08:17:54;;;;;;;4.47;1.90;;;20.90;99.90;;;;;;5047196;28;20047;-61
2022/09/02 08:20:20;;;;;;;3.55;1.67;;;20.90;99.90;;;;;;5046570;28;20048;-59
2022/09/02 08:22:46;;;;;;;5.18;1.65;;;20.90;99.90;;;;;;5045818;28;20041;-60
2022/09/02 08:25:11;;;;;;;2.88;1.80;;;21.00;99.90;;;;;;5040649;28;20037;-61
2022/09/02 08:27:37;;;;;;;2.90;1.67;;;21.00;99.90;;;;;;5037928;28;20260;-60
2022/09/02 08:30:05;;;;;;;9.77;2.05;;;21.10;99.90;;;;;;5043083;28;20214;-59
2022/09/02 08:32:31;;;;;;;5.93;2.08;;;21.20;99.90;;;;;;5044653;28;20091;-60
2022/09/02 08:35:03;;;;;;;5.65;1.70;;;21.20;99.90;;;;;;5046938;28;20041;-61
2022/09/02 08:37:33;;;;;;;4.03;1.77;;;21.20;99.90;;;;;;5044054;28;20124;-59
2022/09/02 08:40:02;;;;;;;7.95;2.33;;;21.40;99.90;;;;;;5045942;28;20060;-60
2022/09/02 08:42:57;;;;;;;4.68;1.73;;;21.50;99.90;;;;;;5041808;28;20047;-59
2022/09/02 08:45:36;;;;;;;5.68;1.80;;;21.70;99.90;;;;;;5033097;28;20032;-61
2022/09/02 08:48:21;;;;;;;3.70;1.60;;;21.70;99.90;;;;;;5044743;28;20037;-59
2022/09/02 08:50:50;;;;;;;5.13;1.38;;;21.80;99.90;;;;;;5047628;28;20036;-60
2022/09/02 08:53:28;;;;;;;3.50;1.40;;;21.90;99.90;;;;;;5048226;28;20115;-59
2022/09/02 08:55:57;;;;;;;2.35;1.50;;;21.90;99.90;;;;;;5034832;28;20041;-61
2022/09/02 08:58:27;;;;;;;5.22;1.67;;;21.90;99.90;;;;;;5044725;28;20851;-60
2022/09/02 09:01:06;;;;;;;2.53;1.60;;;22.00;99.90;;;;;;5038825;28;20033;-61
2022/09/02 09:03:58;;;;;;;5.35;1.80;;;22.10;99.90;;;;;;5044453;28;20036;-60
2022/09/02 09:06:51;;;;;;;4.53;1.70;;;22.10;99.90;;;;;;5026305;28;20408;-61
2022/09/02 09:09:33;;;;;;;5.70;1.75;;;22.30;99.90;;;;;;5041067;28;20120;-60
2022/09/02 09:12:28;;;;;;;4.65;1.85;;;22.20;99.90;;;;;;5040249;28;20048;-60
2022/09/02 09:15:18;;;;;;;6.38;1.75;;;22.20;99.90;;;;;;5042841;28;20036;-62
2022/09/02 09:17:50;;;;;;;3.75;1.70;;;22.20;99.90;;;;;;5039070;28;20029;-62
2022/09/02 09:20:23;;;;;;;6.03;1.45;;;22.20;99.90;;;;;;5045877;28;20354;-60
2022/09/02 09:22:51;;;;;;;6.07;1.50;;;22.30;99.90;;;;;;5045974;28;20488;-61
2022/09/02 09:25:17;;;;;;;4.40;1.60;;;22.30;99.90;;;;;;5039225;28;20044;-60
2022/09/02 09:27:46;;;;;;;4.53;1.70;;;22.50;99.90;;;;;;5042065;28;20043;-61
2022/09/02 09:30:12;;;;;;;3.45;1.67;;;22.60;99.90;;;;;;5041699;28;20033;-60
2022/09/02 09:32:45;;;;;;;5.25;1.95;;;22.60;99.90;;;;;;5039881;28;20037;-61
2022/09/02 09:35:16;;;;;;;6.38;1.98;;;22.80;99.90;;;;;;5046119;28;20041;-61
2022/09/02 09:37:42;;;;;;;4.10;1.52;;;22.70;99.90;;;;;;5037747;28;20047;-60
2022/09/02 09:40:16;;;;;;;7.93;2.15;;;22.90;99.90;;;;;;5040385;28;20037;-59
2022/09/02 09:42:43;;;;;;;4.20;1.75;;;22.90;99.90;;;;;;5044836;28;20087;-61
2022/09/02 09:45:24;;;;;;;1.92;1.30;;;22.80;99.90;;;;;;5042987;28;20036;-61
2022/09/02 09:48:12;;;;;;;3.78;1.63;;;23.00;99.90;;;;;;5044070;28;20392;-61
2022/09/02 09:50:38;;;;;;;2.55;1.50;;;23.20;99.90;;;;;;5041521;28;20029;-61
2022/09/02 09:53:26;;;;;;;3.78;1.50;;;23.20;99.90;;;;;;5038139;28;20550;-61
2022/09/02 09:55:51;;;;;;;2.20;1.50;;;23.30;99.90;;;;;;5039756;28;20055;-62
2022/09/02 09:58:18;;;;;;;4.45;1.45;;;23.40;99.90;;;;;;5038352;28;20088;-62
2022/09/02 10:00:44;;;;;;;2.58;1.70;;;23.40;99.90;;;;;;5044019;28;20483;-61
2022/09/02 10:03:20;;;;;;;4.10;1.67;;;23.50;99.90;;;;;;5045029;28;20094;-61
2022/09/02 10:05:46;;;;;;;7.38;1.83;;;23.50;99.90;;;;;;5028573;28;20325;-61
2022/09/02 10:08:14;;;;;;;3.40;1.67;;;23.50;99.90;;;;;;5042553;28;20128;-61
2022/09/02 10:11:04;;;;;;;6.10;1.52;;;23.50;99.90;;;;;;5046164;28;20028;-61
2022/09/02 10:13:32;;;;;;;4.50;1.60;;;23.50;99.90;;;;;;5038663;28;20037;-60
2022/09/02 10:16:12;;;;;;;2.60;1.40;;;23.50;99.90;;;;;;5038026;28;20052;-61
2022/09/02 10:18:49;;;;;;;3.50;1.50;;;23.60;99.90;;;;;;5039668;28;20547;-61
2022/09/02 10:21:30;;;;;;;2.15;1.30;;;23.60;99.90;;;;;;5041324;28;20489;-62
2022/09/02 10:24:25;;;;;;;4.57;1.58;;;23.60;99.90;;;;;;5034723;28;20043;-61
2022/09/02 10:26:55;;;;;;;8.57;1.70;;;23.70;99.90;;;;;;5043168;28;20040;-61
2022/09/02 10:29:51;;;;;;;3.78;1.60;;;23.90;99.90;;;;;;5046699;28;20361;-61
2022/09/02 10:32:40;;;;;;;2.03;1.65;;;23.90;99.90;;;;;;5041522;28;20430;-61
2022/09/02 10:35:37;;;;;;;6.90;2.05;;;24.10;99.90;;;;;;5037193;28;20464;-61
2022/09/02 10:38:33;;;;;;;6.18;1.67;;;24.20;99.90;;;;;;5034727;28;20440;-61
2022/09/02 10:41:36;;;;;;;5.20;2.00;;;24.20;99.90;;;;;;5034263;28;20048;-61
2022/09/02 10:44:24;;;;;;;5.65;2.35;;;24.30;99.90;;;;;;5043806;28;20465;-61
2022/09/02 10:46:59;;;;;;;4.97;1.58;;;24.20;99.90;;;;;;5043121;28;20048;-61
2022/09/02 10:49:39;;;;;;;5.07;1.65;;;24.10;99.90;;;;;;5044071;28;20663;-61
2022/09/02 10:52:26;;;;;;;4.07;1.60;;;24.20;99.90;;;;;;5038607;28;20025;-62
2022/09/02 10:55:01;;;;;;;4.93;1.40;;;24.20;99.90;;;;;;5043808;28;20018;-62
2022/09/02 10:57:32;;;;;;;11.40;10.15;;;24.20;99.90;;;;;;5038729;28;20437;-62
2022/09/02 11:00:19;;;;;;;4.18;2.10;;;24.20;99.90;;;;;;5043037;28;20094;-63
2022/09/02 11:03:12;;;;;;;3.45;1.40;;;24.20;99.90;;;;;;5042578;28;20044;-62
2022/09/02 11:05:52;;;;;;;3.05;1.50;;;24.20;99.90;;;;;;5040751;28;20108;-62
2022/09/02 11:08:53;;;;;;;2.53;1.45;;;24.20;99.90;;;;;;5035832;28;20511;-63
2022/09/02 11:11:21;;;;;;;2.38;1.33;;;24.40;99.90;;;;;;5042298;28;20045;-63
2022/09/02 11:14:13;;;;;;;2.60;1.30;;;24.50;99.90;;;;;;5034189;28;20404;-64
2022/09/02 11:16:51;;;;;;;4.80;1.50;;;24.60;99.90;;;;;;5037883;28;20391;-63
2022/09/02 11:19:31;;;;;;;3.47;1.27;;;24.50;99.90;;;;;;5042471;28;20052;-63
2022/09/02 11:22:07;;;;;;;3.42;1.38;;;24.50;99.90;;;;;;5041902;28;20033;-62
2022/09/02 11:25:10;;;;;;;5.20;1.60;;;24.50;99.90;;;;;;5040319;28;20249;-62
2022/09/02 11:27:47;;;;;;;2.92;1.23;;;24.40;99.90;;;;;;5030611;28;20064;-63
2022/09/02 11:30:15;;;;;;;1.50;1.10;;;24.40;99.90;;;;;;5039429;28;20072;-62
2022/09/02 11:32:49;;;;;;;1.45;1.23;;;24.50;99.90;;;;;;5040499;28;20037;-62
2022/09/02 11:35:26;;;;;;;1.40;1.20;;;24.50;99.90;;;;;;5039758;28;20099;-62
2022/09/02 11:38:00;;;;;;;1.60;1.20;;;24.50;99.90;;;;;;5043193;28;20534;-63
2022/09/02 11:40:31;;;;;;;1.85;1.17;;;24.50;99.90;;;;;;5041122;28;20036;-63
2022/09/02 11:43:03;;;;;;;2.33;1.20;;;24.70;99.90;;;;;;5041956;28;20036;-63
2022/09/02 11:45:55;;;;;;;2.33;1.50;;;;;;;;;;5035744;28;20064;-63
2022/09/02 11:48:21;;;;;;;4.28;1.20;;;25.20;99.90;;;;;;5053788;28;20586;-62
2022/09/02 11:51:08;;;;;;;1.95;1.17;;;25.10;99.90;;;;;;5042413;28;20120;-61
2022/09/02 11:53:44;;;;;;;3.50;1.20;;;25.00;99.90;;;;;;5046618;28;21157;-62
2022/09/02 11:56:17;;;;;;;1.83;1.20;;;25.20;99.90;;;;;;5045204;28;20029;-63
2022/09/02 11:58:46;;;;;;;1.98;1.20;;;25.20;99.90;;;;;;5045184;28;20033;-61
2022/09/02 12:01:14;;;;;;;2.40;1.13;;;25.20;99.90;;;;;;5045161;28;20045;-62
2022/09/02 12:04:18;;;;;;;3.75;1.30;;;25.30;99.90;;;;;;5041153;28;20029;-62
2022/09/02 12:07:07;;;;;;;2.97;1.13;;;25.40;99.90;;;;;;5041073;28;20116;-62
2022/09/02 12:09:53;;;;;;;5.75;1.38;;;25.50;99.90;;;;;;5039035;28;20155;-62
2022/09/02 12:12:37;;;;;;;2.85;1.30;;;25.40;99.90;;;;;;5042428;28;20040;-62
2022/09/02 12:15:07;;;;;;;2.75;1.45;;;25.50;99.90;;;;;;5046484;28;20554;-61
2022/09/02 12:17:41;;;;;;;2.65;1.45;;;25.40;99.90;;;;;;5046049;28;20056;-63
2022/09/02 12:20:28;;;;;;;3.17;1.45;;;25.30;99.90;;;;;;5043699;28;20763;-62
2022/09/02 12:22:53;;;;;;;3.15;1.20;;;25.20;99.90;;;;;;5014554;28;20125;-62
2022/09/02 12:25:24;;;;;;;2.00;1.27;;;25.20;99.90;;;;;;5043874;28;20112;-63
2022/09/02 12:28:22;;;;;;;2.80;1.30;;;25.20;99.90;;;;;;5040094;28;20120;-63
2022/09/02 12:31:07;;;;;;;3.70;1.27;;;25.10;99.90;;;;;;5043209;28;20048;-62
2022/09/02 12:33:45;;;;;;;3.05;1.27;;;25.20;99.90;;;;;;5044073;28;20044;-63
2022/09/02 12:36:38;;;;;;;1.20;1.10;;;25.20;99.70;;;;;;5041061;28;20120;-63
2022/09/02 12:39:34;;;;;;;2.97;1.20;;;25.00;99.40;;;;;;5034337;28;20488;-61
2022/09/02 12:42:05;;;;;;;3.45;1.15;;;24.90;99.60;;;;;;5032651;28;20029;-62
2022/09/02 12:44:52;;;;;;;3.67;1.25;;;24.80;98.60;;;;;;5053590;28;20091;-63
2022/09/02 12:47:55;;;;;;;1.35;1.02;;;24.70;99.70;;;;;;5054302;28;20028;-62
2022/09/02 12:50:31;;;;;;;3.08;1.35;;;24.80;99.90;;;;;;5062099;28;21380;-63
2022/09/02 12:53:33;;;;;;;1.42;1.00;;;24.80;98.80;;;;;;5057053;28;20543;-64
2022/09/02 12:56:19;;;;;;;2.20;1.10;;;24.80;99.70;;;;;;5060840;28;20025;-63
2022/09/02 12:58:49;;;;;;;2.88;1.02;;;24.70;99.50;;;;;;5063189;28;20119;-63
2022/09/02 13:01:23;;;;;;;2.65;1.20;;;24.70;99.90;;;;;;5063542;28;20036;-62
2022/09/02 13:04:16;;;;;;;2.00;1.10;;;24.70;99.00;;;;;;5066793;28;20132;-62
2022/09/02 13:06:59;;;;;;;3.28;1.05;;;24.70;99.40;;;;;;5063222;28;20029;-63
2022/09/02 13:09:43;;;;;;;5.30;1.30;;;24.70;99.20;;;;;;5063449;28;20055;-63
2022/09/02 13:12:34;;;;;;;3.50;1.38;;;24.70;98.40;;;;;;5060351;28;20025;-63